Time;durP1;ratioP1;P1;durP2;ratioP2;P2;SDS_P1;SDS_P2;PMS_P1;PMS_P2;Temp;Humidity;BMP_temperature;BMP_pressure;BME280_temperature;BME280_humidity;BME280_pressure;Samples;Min_cycle;Max_cycle;Signal;HPM_P1;HPM_P2
2022/05/08 00:01:08;;;;;;;0.20;0.20;;;;;;;;;;5047801;28;20379;-83
2022/05/08 00:03:34;;;;;;;1.10;0.88;;;;;;;;;;5045162;28;20057;-83
2022/05/08 00:06:02;;;;;;;1.95;0.98;;;;;;;;;;5046795;28;20113;-82
2022/05/08 00:08:29;;;;;;;1.30;0.90;;;;;;;;;;5045935;28;20029;-83
2022/05/08 00:10:54;;;;;;;3.40;0.60;;;;;;;;;;5045164;28;20039;-83
2022/05/08 00:13:20;;;;;;;0.17;0.17;;;;;;;;;;5050212;28;20550;-84
2022/05/08 00:15:46;;;;;;;0.10;0.10;;;;;;;;;;5051003;28;20383;-83
2022/05/08 00:18:12;;;;;;;0.57;0.45;;;;;;;;;;5050616;28;20025;-85
2022/05/08 00:20:38;;;;;;;0.17;0.17;;;;;;;;;;5051232;28;20418;-86
2022/05/08 00:23:04;;;;;;;0.50;0.50;;;;;;;;;;5052240;28;20033;-83
2022/05/08 00:25:30;;;;;;;0.32;0.32;;;;;;;;;;5048765;28;20029;-83
2022/05/08 00:27:56;;;;;;;0.17;0.13;;;;;;;;;;5048320;28;20048;-82
2022/05/08 00:30:22;;;;;;;1.75;1.27;;;;;;;;;;5049151;28;20029;-83
2022/05/08 00:32:48;;;;;;;0.47;0.47;;;;;;;;;;5049004;28;20040;-82
2022/05/08 00:35:14;;;;;;;0.73;0.50;;;;;;;;;;5050963;28;20029;-82
2022/05/08 00:37:40;;;;;;;0.30;0.30;;;;;;;;;;5046236;28;20048;-83
2022/05/08 00:40:06;;;;;;;0.30;0.30;;;;;;;;;;5042098;28;20040;-82
2022/05/08 00:42:32;;;;;;;0.10;0.10;;;;;;;;;;5041026;28;20484;-83
2022/05/08 00:44:58;;;;;;;0.22;0.22;;;;;;;;;;5050681;28;20171;-83
2022/05/08 00:47:24;;;;;;;0.00;0.00;;;;;;;;;;5050839;28;20170;-82
2022/05/08 00:49:50;;;;;;;0.52;0.35;;;;;;;;;;5047879;28;20119;-83
2022/05/08 00:52:16;;;;;;;0.25;0.25;;;;;;;;;;5049649;28;20040;-83
2022/05/08 00:54:43;;;;;;;0.52;0.35;;;;;;;;;;5046650;28;20009;-82
2022/05/08 00:57:10;;;;;;;0.10;0.10;;;;;;;;;;5046910;28;20586;-86
2022/05/08 00:59:36;;;;;;;0.65;0.20;;;;;;;;;;5048233;28;20021;-82
2022/05/08 01:02:03;;;;;;;0.20;0.20;;;;;;;;;;5048060;28;20025;-82
2022/05/08 01:04:29;;;;;;;0.38;0.38;;;;;;;;;;5050769;28;20507;-81
2022/05/08 01:06:55;;;;;;;0.10;0.10;;;;;;;;;;5048880;28;20488;-82
2022/05/08 01:09:21;;;;;;;0.00;0.00;;;;;;;;;;5049039;28;20037;-81
2022/05/08 01:11:47;;;;;;;0.85;0.30;;;;;;;;;;5044617;28;20072;-82
2022/05/08 01:14:14;;;;;;;0.00;0.00;;;;;;;;;;5048859;28;20029;-81
2022/05/08 01:16:40;;;;;;;0.00;0.00;;;;;;;;;;5050294;28;20032;-82
2022/05/08 01:19:06;;;;;;;0.32;0.32;;;;;;;;;;5050337;28;20021;-82
2022/05/08 01:21:38;;;;;;;0.00;0.00;;;;;;;;;;5048046;28;20025;-81
2022/05/08 01:24:04;;;;;;;0.10;0.10;;;;;;;;;;5048593;28;20487;-81
2022/05/08 01:26:30;;;;;;;0.10;0.10;;;;;;;;;;5042880;28;20040;-82
2022/05/08 01:28:56;;;;;;;0.80;0.30;;;;;;;;;;5037491;28;20017;-81
2022/05/08 01:31:22;;;;;;;0.10;0.10;;;;;;;;;;5042612;28;20566;-81
2022/05/08 01:33:48;;;;;;;0.03;0.00;;;;;;;;;;5048642;28;20120;-81
2022/05/08 01:36:14;;;;;;;0.10;0.10;;;;;;;;;;5049516;28;20770;-81
2022/05/08 01:38:39;;;;;;;0.10;0.10;;;;;;;;;;5050861;28;20033;-82
2022/05/08 01:41:05;;;;;;;0.15;0.15;;;;;;;;;;5048446;28;20025;-81
2022/05/08 01:43:34;;;;;;;0.05;0.05;;;;;;;;;;5046526;28;20112;-81
2022/05/08 01:46:00;;;;;;;4.97;1.05;;;;;;;;;;5049668;28;20017;-82
2022/05/08 01:48:26;;;;;;;0.43;0.32;;;;;;;;;;5048001;28;20498;-82
2022/05/08 01:50:57;;;;;;;0.20;0.10;;;;;;;;;;5044659;28;20029;-82
2022/05/08 01:53:27;;;;;;;0.10;0.05;;;;;;;;;;5043192;28;20055;-82
2022/05/08 01:55:54;;;;;;;0.10;0.10;;;;;;;;;;5037857;28;20022;-82
2022/05/08 01:58:21;;;;;;;0.03;0.03;;;;;;;;;;5045372;28;20025;-82
2022/05/08 02:00:47;;;;;;;0.00;0.00;;;;;;;;;;5049442;28;20027;-82
2022/05/08 02:03:13;;;;;;;0.43;0.43;;;;;;;;;;5049715;28;20029;-82
2022/05/08 02:05:39;;;;;;;0.00;0.00;;;;;;;;;;5048825;28;20028;-82
2022/05/08 02:08:05;;;;;;;0.00;0.00;;;;;;;;;;5048414;28;20061;-82
2022/05/08 02:10:31;;;;;;;0.45;0.45;;;;;;;;;;5046845;28;20067;-82
2022/05/08 02:12:57;;;;;;;0.00;0.00;;;;;;;;;;5051067;28;20033;-82
2022/05/08 02:15:29;;;;;;;0.25;0.25;;;;;;;;;;5046577;28;20017;-82
2022/05/08 02:17:54;;;;;;;0.40;0.40;;;;;;;;;;5046765;28;20060;-82
2022/05/08 02:20:20;;;;;;;0.10;0.10;;;;;;;;;;5041617;28;20018;-83
2022/05/08 02:22:46;;;;;;;0.10;0.10;;;;;;;;;;5035811;28;20075;-82
2022/05/08 02:25:12;;;;;;;0.17;0.17;;;;;;;;;;5046905;28;20037;-82
2022/05/08 02:27:39;;;;;;;0.00;0.00;;;;;;;;;;5050020;28;20081;-82
2022/05/08 02:30:09;;;;;;;0.00;0.00;;;;;;;;;;5049499;28;20033;-82
2022/05/08 02:32:35;;;;;;;0.20;0.20;;;;;;;;;;5044833;28;20029;-81
2022/05/08 02:35:01;;;;;;;0.10;0.10;;;;;;;;;;5048454;28;20456;-82
2022/05/08 02:37:27;;;;;;;0.15;0.15;;;;;;;;;;5049317;28;20095;-82
2022/05/08 02:39:53;;;;;;;0.00;0.00;;;;;;;;;;5050315;28;20060;-82
2022/05/08 02:42:18;;;;;;;0.68;0.32;;;;;;;;;;5046047;28;20032;-82
2022/05/08 02:44:44;;;;;;;0.20;0.10;;;;;;;;;;5049157;28;20028;-82
2022/05/08 02:47:10;;;;;;;0.10;0.10;;;;;;;;;;5047200;28;20029;-82
2022/05/08 02:49:36;;;;;;;0.10;0.10;;;;;;;;;;5049458;28;20140;-82
2022/05/08 02:52:02;;;;;;;0.88;0.65;;;;;;;;;;5041632;28;20506;-82
2022/05/08 02:54:28;;;;;;;0.00;0.00;;;;;;;;;;5046811;28;20076;-82
2022/05/08 02:59:38;;;;;;;0.00;0.00;;;;;;;;;;5042103;28;20044;-82
2022/05/08 03:02:04;;;;;;;0.38;0.28;;;;;;;;;;5047539;28;20021;-82
2022/05/08 03:04:30;;;;;;;1.10;0.50;;;;;;;;;;5045816;28;20048;-82
2022/05/08 03:06:56;;;;;;;0.15;0.15;;;;;;;;;;5048720;28;20060;-82
2022/05/08 03:09:22;;;;;;;1.98;0.65;;;;;;;;;;5047544;28;20387;-82
2022/05/08 03:11:48;;;;;;;0.13;0.13;;;;;;;;;;5046471;28;20025;-82
2022/05/08 03:14:15;;;;;;;1.55;0.15;;;;;;;;;;5044200;28;20037;-83
2022/05/08 03:16:41;;;;;;;0.50;0.50;;;;;;;;;;5045268;28;20030;-83
2022/05/08 03:19:07;;;;;;;0.10;0.10;;;;;;;;;;5043642;28;20468;-82
2022/05/08 03:21:34;;;;;;;0.00;0.00;;;;;;;;;;5049007;28;20025;-82
2022/05/08 03:24:00;;;;;;;0.10;0.10;;;;;;;;;;5048272;28;20021;-82
2022/05/08 03:26:28;;;;;;;0.20;0.20;;;;;;;;;;5047947;28;20036;-83
2022/05/08 03:28:54;;;;;;;0.28;0.28;;;;;;;;;;5045027;28;20076;-83
2022/05/08 03:31:21;;;;;;;0.10;0.10;;;;;;;;;;5047574;28;20031;-83
2022/05/08 03:33:47;;;;;;;0.20;0.20;;;;;;;;;;5042817;28;20418;-83
2022/05/08 03:36:14;;;;;;;0.00;0.00;;;;;;;;;;5047068;28;20226;-84
2022/05/08 03:38:47;;;;;;;0.00;0.00;;;;;;;;;;5043049;28;20028;-83
2022/05/08 03:41:16;;;;;;;0.00;0.00;;;;;;;;;;5046963;28;20116;-83
2022/05/08 03:43:45;;;;;;;0.30;0.30;;;;;;;;;;5043337;28;20053;-83
2022/05/08 03:46:13;;;;;;;0.08;0.08;;;;;;;;;;5040270;28;20047;-83
2022/05/08 03:48:39;;;;;;;11.50;1.00;;;;;;;;;;5044249;28;20090;-84
2022/05/08 03:51:05;;;;;;;0.00;0.00;;;;;;;;;;5045913;28;20403;-84
2022/05/08 03:53:31;;;;;;;9.40;1.33;;;;;;;;;;5040029;28;20026;-83
2022/05/08 03:55:57;;;;;;;1.08;0.98;;;;;;;;;;5037898;28;20028;-83
2022/05/08 03:58:23;;;;;;;0.15;0.10;;;;;;;;;;5048065;28;20040;-84
2022/05/08 04:00:49;;;;;;;0.57;0.57;;;;;;;;;;5047680;28;20017;-83
2022/05/08 04:03:15;;;;;;;0.75;0.43;;;;;;;;;;5040841;28;20053;-82
2022/05/08 04:05:41;;;;;;;0.00;0.00;;;;;;;;;;5048245;28;20071;-82
2022/05/08 04:08:07;;;;;;;0.77;0.68;;;;;;;;;;5045229;28;20179;-82
2022/05/08 04:10:33;;;;;;;0.22;0.22;;;;;;;;;;5044730;28;20036;-81
2022/05/08 04:12:59;;;;;;;0.10;0.10;;;;;;;;;;5047438;28;20024;-82
2022/05/08 04:18:10;;;;;;;0.93;0.25;;;;;;;;;;5044305;28;20051;-82
2022/05/08 04:20:36;;;;;;;0.20;0.20;;;;;;;;;;5048820;28;20480;-82
2022/05/08 04:25:47;;;;;;;0.85;0.57;;;;;;;;;;5042215;28;20501;-82
2022/05/08 04:28:13;;;;;;;0.13;0.08;;;;;;;;;;5033527;28;20030;-82
2022/05/08 04:30:39;;;;;;;0.10;0.10;;;;;;;;;;5041705;28;20048;-83
2022/05/08 04:33:05;;;;;;;0.10;0.10;;;;;;;;;;5046561;28;20111;-82
2022/05/08 04:35:31;;;;;;;0.85;0.65;;;;;;;;;;5037276;28;20075;-82
2022/05/08 04:37:57;;;;;;;0.35;0.35;;;;;;;;;;5046307;28;20029;-82
2022/05/08 04:40:24;;;;;;;0.00;0.00;;;;;;;;;;5036974;28;20055;-81
2022/05/08 04:42:50;;;;;;;0.28;0.20;;;;;;;;;;5043442;28;20029;-82
2022/05/08 04:45:16;;;;;;;0.22;0.08;;;;;;;;;;5042050;28;20039;-81
2022/05/08 04:47:42;;;;;;;4.55;0.55;;;;;;;;;;5045822;28;20028;-81
2022/05/08 04:50:08;;;;;;;0.88;0.63;;;;;;;;;;5048244;28;20071;-81
2022/05/08 04:52:34;;;;;;;0.10;0.10;;;;;;;;;;5042148;28;20051;-81
2022/05/08 04:55:03;;;;;;;9.95;1.27;;;;;;;;;;5044479;28;20083;-81
2022/05/08 04:57:29;;;;;;;0.00;0.00;;;;;;;;;;5047540;28;20127;-80
2022/05/08 04:59:56;;;;;;;0.28;0.28;;;;;;;;;;5052093;28;20479;-81
2022/05/08 05:02:22;;;;;;;0.57;0.57;;;;;;;;;;5051273;28;20033;-80
2022/05/08 05:04:48;;;;;;;0.20;0.20;;;;;;;;;;5046504;28;20133;-81
2022/05/08 05:07:13;;;;;;;0.88;0.73;;;;;;;;;;5048712;28;20116;-81
2022/05/08 05:09:39;;;;;;;0.00;0.00;;;;;;;;;;5050561;28;20025;-81
2022/05/08 05:12:06;;;;;;;1.35;0.85;;;;;;;;;;5050392;28;20400;-80
2022/05/08 05:14:32;;;;;;;0.32;0.32;;;;;;;;;;5049510;28;20143;-81
2022/05/08 05:17:00;;;;;;;0.10;0.10;;;;;;;;;;5040733;28;20033;-81
2022/05/08 05:19:26;;;;;;;0.00;0.00;;;;;;;;;;5045005;28;20029;-81
2022/05/08 05:21:51;;;;;;;2.05;1.08;;;;;;;;;;5049249;28;20063;-81
2022/05/08 05:24:17;;;;;;;0.80;0.57;;;;;;;;;;5046720;28;20021;-81
2022/05/08 05:26:43;;;;;;;0.82;0.55;;;;;;;;;;5050670;28;20753;-81
2022/05/08 05:29:09;;;;;;;0.43;0.40;;;;;;;;;;5048580;28;20028;-81
2022/05/08 05:31:35;;;;;;;14.77;1.75;;;;;;;;;;5046789;28;20033;-81
2022/05/08 05:34:01;;;;;;;1.17;0.40;;;;;;;;;;5050486;28;20029;-81
2022/05/08 05:36:27;;;;;;;1.20;0.77;;;;;;;;;;5049618;28;20048;-82
2022/05/08 05:38:53;;;;;;;0.50;0.50;;;;;;;;;;5051343;28;20025;-81
2022/05/08 05:41:19;;;;;;;5.47;1.27;;;;;;;;;;5050710;28;20048;-81
2022/05/08 05:43:45;;;;;;;0.00;0.00;;;;;;;;;;5047761;28;20021;-81
2022/05/08 05:48:56;;;;;;;0.90;0.47;;;;;;;;;;5047925;28;20482;-81
2022/05/08 05:51:21;;;;;;;0.10;0.10;;;;;;;;;;5051342;28;20033;-80
2022/05/08 05:53:47;;;;;;;1.58;1.27;;;;;;;;;;5041930;28;20083;-80
2022/05/08 05:56:13;;;;;;;0.10;0.10;;;;;;;;;;5048391;28;20025;-80
2022/05/08 05:58:39;;;;;;;0.00;0.00;;;;;;;;;;5045871;28;20029;-80
2022/05/08 06:01:05;;;;;;;0.32;0.32;;;;;;;;;;5053354;28;20028;-80
2022/05/08 06:03:33;;;;;;;0.00;0.00;;;;;;;;;;5049372;28;20052;-80
2022/05/08 06:05:58;;;;;;;0.00;0.00;;;;;;;;;;5050582;28;20032;-80
2022/05/08 06:08:24;;;;;;;0.20;0.20;;;;;;;;;;5050504;28;20029;-80
2022/05/08 06:10:51;;;;;;;3.13;1.60;;;;;;;;;;5046396;28;20032;-81
2022/05/08 06:13:17;;;;;;;1.02;0.90;;;;;;;;;;5049389;28;20025;-81
2022/05/08 06:15:43;;;;;;;3.13;0.60;;;;;;;;;;5050866;28;20025;-81
2022/05/08 06:18:09;;;;;;;0.20;0.20;;;;;;;;;;5049550;28;20033;-80
2022/05/08 06:20:35;;;;;;;0.60;0.60;;;;;;;;;;5046693;28;20025;-81
2022/05/08 06:23:01;;;;;;;0.88;0.82;;;;;;;;;;5048090;28;20044;-81
2022/05/08 06:25:27;;;;;;;0.50;0.22;;;;;;;;;;5049027;28;20029;-81
2022/05/08 06:27:52;;;;;;;0.30;0.30;;;;;;;;;;5045375;28;20035;-81
2022/05/08 06:30:18;;;;;;;0.22;0.22;;;;;;;;;;5048030;28;20025;-80
2022/05/08 06:32:44;;;;;;;0.10;0.10;;;;;;;;;;5047509;28;20071;-80
2022/05/08 06:35:10;;;;;;;0.10;0.10;;;;;;;;;;5044838;28;20028;-80
2022/05/08 06:37:36;;;;;;;0.00;0.00;;;;;;;;;;5049110;28;20052;-80
2022/05/08 06:40:02;;;;;;;0.32;0.15;;;;;;;;;;5046519;28;20047;-80
2022/05/08 06:42:28;;;;;;;0.35;0.35;;;;;;;;;;5049888;28;20040;-80
2022/05/08 06:44:54;;;;;;;0.55;0.45;;;;;;;;;;5048486;28;20075;-80
2022/05/08 06:47:20;;;;;;;0.28;0.28;;;;;;;;;;5040761;28;20447;-80
2022/05/08 06:49:46;;;;;;;0.35;0.35;;;;;;;;;;5046579;28;20099;-80
2022/05/08 06:52:12;;;;;;;0.25;0.25;;;;;;;;;;5045102;28;20029;-80
2022/05/08 06:54:37;;;;;;;0.40;0.35;;;;;;;;;;5042098;28;20025;-79
2022/05/08 06:57:03;;;;;;;0.75;0.60;;;;;;;;;;5042068;28;20117;-80
2022/05/08 07:02:15;;;;;;;0.10;0.10;;;;;;;;;;5044394;28;20051;-81
2022/05/08 07:04:41;;;;;;;0.20;0.20;;;;;;;;;;5046585;28;20063;-80
2022/05/08 07:07:07;;;;;;;0.10;0.10;;;;;;;;;;5045278;28;20037;-80
2022/05/08 07:09:33;;;;;;;0.28;0.28;;;;;;;;;;5045425;28;20028;-80
2022/05/08 07:11:59;;;;;;;0.00;0.00;;;;;;;;;;5046851;28;20511;-81
2022/05/08 07:14:25;;;;;;;0.30;0.30;;;;;;;;;;5045452;28;20025;-80
2022/05/08 07:16:51;;;;;;;0.20;0.20;;;;;;;;;;5046375;28;20021;-80
2022/05/08 07:19:17;;;;;;;2.95;1.05;;;;;;;;;;5045369;28;20036;-81
2022/05/08 07:21:43;;;;;;;0.22;0.22;;;;;;;;;;5047142;28;20017;-80
2022/05/08 07:24:09;;;;;;;0.80;0.52;;;;;;;;;;5047362;28;20482;-81
2022/05/08 07:26:38;;;;;;;0.10;0.10;;;;;;;;;;5047534;28;20506;-81
2022/05/08 07:29:04;;;;;;;0.40;0.40;;;;;;;;;;5044263;28;20025;-80
2022/05/08 07:31:31;;;;;;;0.00;0.00;;;;;;;;;;5044994;28;20037;-81
2022/05/08 07:36:42;;;;;;;0.05;0.05;;;;;;;;;;5039815;28;20059;-81
2022/05/08 07:39:08;;;;;;;8.23;1.00;;;;;;;;;;5042813;28;20467;-81
2022/05/08 07:41:34;;;;;;;0.30;0.30;;;;;;;;;;5053956;28;20025;-83
2022/05/08 07:44:00;;;;;;;0.13;0.13;;;;;;;;;;5045982;28;20151;-78
2022/05/08 07:46:26;;;;;;;1.77;1.23;;;;;;;;;;5045585;28;20530;-80
2022/05/08 07:48:55;;;;;;;1.20;0.82;;;;;;;;;;5046456;28;20063;-82
2022/05/08 07:51:21;;;;;;;0.10;0.10;;;;;;;;;;5045110;28;20045;-82
2022/05/08 07:53:47;;;;;;;0.55;0.45;;;;;;;;;;5045858;28;20025;-85
2022/05/08 07:56:13;;;;;;;4.78;0.88;;;;;;;;;;5039435;28;20478;-83
2022/05/08 07:58:39;;;;;;;0.40;0.40;;;;;;;;;;5046594;28;20523;-79
2022/05/08 08:01:05;;;;;;;1.23;1.08;;;;;;;;;;5048386;28;20077;-84
2022/05/08 08:03:33;;;;;;;0.30;0.30;;;;;;;;;;5052916;28;20045;-86
2022/05/08 08:05:59;;;;;;;0.17;0.17;;;;;;;;;;5052997;28;20043;-82
2022/05/08 08:08:25;;;;;;;0.00;0.00;;;;;;;;;;5046458;28;20033;-86
2022/05/08 08:10:53;;;;;;;0.00;0.00;;;;;;;;;;5050242;28;20450;-86
2022/05/08 08:13:22;;;;;;;0.10;0.10;;;;;;;;;;5051389;28;20033;-84
2022/05/08 08:15:49;;;;;;;4.68;2.25;;;;;;;;;;5052066;28;20025;-88
2022/05/08 08:18:15;;;;;;;10.60;0.95;;;;;;;;;;5046734;28;20142;-86
2022/05/08 08:20:41;;;;;;;3.05;0.77;;;;;;;;;;5046364;28;20017;-86
2022/05/08 08:23:08;;;;;;;1.55;0.85;;;;;;;;;;5041902;28;20391;-82
2022/05/08 08:25:34;;;;;;;2.83;1.08;;;;;;;;;;5039061;28;20029;-79
2022/05/08 08:28:00;;;;;;;1.05;0.63;;;;;;;;;;5047544;28;20033;-84
2022/05/08 08:30:25;;;;;;;2.17;1.25;;;;;;;;;;5044624;28;20033;-80
2022/05/08 08:32:51;;;;;;;0.55;0.55;;;;;;;;;;5038492;28;20395;-82
2022/05/08 08:35:17;;;;;;;0.32;0.15;;;;;;;;;;5044330;28;20387;-83
2022/05/08 08:37:43;;;;;;;1.35;0.95;;;;;;;;;;5049509;28;20445;-83
2022/05/08 08:40:10;;;;;;;0.22;0.22;;;;;;;;;;5046225;28;20055;-85
2022/05/08 08:42:39;;;;;;;0.20;0.20;;;;;;;;;;5048183;28;20056;-83
2022/05/08 08:47:53;;;;;;;2.10;1.30;;;;;;;;;;5049142;28;20116;-82
2022/05/08 08:50:28;;;;;;;4.55;1.17;;;;;;;;;;5049221;28;20537;-84
2022/05/08 08:52:57;;;;;;;0.35;0.32;;;;;;;;;;5044815;28;20036;-83
2022/05/08 08:55:23;;;;;;;0.10;0.10;;;;;;;;;;5047884;28;20025;-84
2022/05/08 08:57:49;;;;;;;0.00;0.00;;;;;;;;;;5047638;28;20021;-83
2022/05/08 09:00:15;;;;;;;0.00;0.00;;;;;;;;;;5033651;28;20620;-83
2022/05/08 09:02:41;;;;;;;0.03;0.03;;;;;;;;;;5037507;28;20442;-83
2022/05/08 09:05:08;;;;;;;0.93;0.55;;;;;;;;;;5037450;28;20043;-85
2022/05/08 09:07:34;;;;;;;0.13;0.13;;;;;;;;;;5041232;28;20052;-83
2022/05/08 09:10:10;;;;;;;0.10;0.10;;;;;;;;;;5037643;28;20032;-85
2022/05/08 09:12:38;;;;;;;0.10;0.10;;;;;;;;;;5037961;28;20040;-85
2022/05/08 09:15:22;;;;;;;0.13;0.13;;;;;;;;;;5040286;28;20547;-84
2022/05/08 09:17:50;;;;;;;0.52;0.52;;;;;;;;;;5042275;28;20026;-81
2022/05/08 09:20:35;;;;;;;0.03;0.03;;;;;;;;;;5039838;28;20044;-77
2022/05/08 09:23:02;;;;;;;3.40;2.50;;;;;;;;;;5040327;28;20029;-77
2022/05/08 09:25:43;;;;;;;0.57;0.57;;;;;;;;;;5040024;28;20865;-76
2022/05/08 09:28:10;;;;;;;0.20;0.20;;;;;;;;;;5041160;28;20037;-78
2022/05/08 09:30:36;;;;;;;0.30;0.20;;;;;;;;;;5038224;28;20959;-77
2022/05/08 09:33:02;;;;;;;1.55;0.75;;;;;;;;;;5037648;28;20063;-79
2022/05/08 09:35:43;;;;;;;0.75;0.28;;;;;;;;;;5040197;28;20087;-78
2022/05/08 09:38:09;;;;;;;0.13;0.13;;;;;;;;;;5040032;28;20029;-80
2022/05/08 09:40:35;;;;;;;0.10;0.10;;;;;;;;;;5041420;28;20031;-78
2022/05/08 09:43:01;;;;;;;0.10;0.10;;;;;;;;;;5040974;28;20400;-80
2022/05/08 09:45:26;;;;;;;0.15;0.15;;;;;;;;;;5039203;28;20032;-82
2022/05/08 09:47:52;;;;;;;8.48;0.68;;;;;;;;;;5041294;28;20083;-79
2022/05/08 09:50:18;;;;;;;2.92;0.98;;;;;;;;;;5039023;28;20033;-79
2022/05/08 09:52:45;;;;;;;0.85;0.55;;;;;;;;;;5039048;28;20033;-80
2022/05/08 09:55:12;;;;;;;0.80;0.68;;;;;;;;;;5039084;28;20021;-81
2022/05/08 09:57:41;;;;;;;3.53;1.20;;;;;;;;;;5039938;28;20045;-80
2022/05/08 10:00:08;;;;;;;0.15;0.15;;;;;;;;;;5039972;28;20127;-81
2022/05/08 10:02:38;;;;;;;0.30;0.30;;;;;;;;;;5038016;28;20094;-81
2022/05/08 10:05:04;;;;;;;0.55;0.52;;;;;;;;;;5040182;28;20098;-85
2022/05/08 10:07:32;;;;;;;1.00;0.40;;;;;;;;;;5042382;28;20071;-83
2022/05/08 10:15:30;;;;;;;1.08;0.40;;;;;;;;;;5038327;28;20117;-77
2022/05/08 10:18:26;;;;;;;0.00;0.00;;;;;;;;;;5038685;28;20115;-77
2022/05/08 10:21:00;;;;;;;1.00;0.35;;;;;;;;;;5027005;28;20488;-78
2022/05/08 10:23:35;;;;;;;0.10;0.10;;;;;;;;;;5038023;28;20029;-76
2022/05/08 10:26:13;;;;;;;0.03;0.03;;;;;;;;;;5040703;28;20378;-80
2022/05/08 10:29:10;;;;;;;0.20;0.20;;;;;;;;;;5038595;28;20036;-82
2022/05/08 10:31:52;;;;;;;1.48;0.80;;;;;;;;;;5040841;28;20040;-83
2022/05/08 10:34:31;;;;;;;0.03;0.03;;;;;;;;;;5039544;28;20132;-84
2022/05/08 10:37:12;;;;;;;0.55;0.52;;;;;;;;;;5044747;28;20040;-82
2022/05/08 10:39:46;;;;;;;0.00;0.00;;;;;;;;;;5044435;28;20434;-83
2022/05/08 10:42:44;;;;;;;0.28;0.28;;;;;;;;;;5044372;28;20120;-84
2022/05/08 10:45:30;;;;;;;0.15;0.10;;;;;;;;;;5046954;28;20094;-81
2022/05/08 10:47:56;;;;;;;0.60;0.60;;;;;;;;;;5039441;28;20124;-81
2022/05/08 10:50:22;;;;;;;0.05;0.05;;;;;;;;;;5039785;28;20105;-80
2022/05/08 10:52:47;;;;;;;0.05;0.05;;;;;;;;;;5039737;28;20600;-78
2022/05/08 10:55:15;;;;;;;1.65;0.35;;;;;;;;;;5036635;28;20033;-77
2022/05/08 10:57:41;;;;;;;0.77;0.63;;;;;;;;;;5036822;28;20021;-80
2022/05/08 11:00:08;;;;;;;0.00;0.00;;;;;;;;;;5043882;28;20025;-76
2022/05/08 11:02:41;;;;;;;0.00;0.00;;;;;;;;;;5041289;28;20036;-76
2022/05/08 11:05:08;;;;;;;0.08;0.08;;;;;;;;;;5036376;28;20075;-76
2022/05/08 11:07:34;;;;;;;0.38;0.38;;;;;;;;;;5033952;28;20028;-76
2022/05/08 11:10:00;;;;;;;0.43;0.43;;;;;;;;;;5037581;28;20040;-75
2022/05/08 11:12:36;;;;;;;0.40;0.30;;;;;;;;;;5037951;28;20031;-76
2022/05/08 11:15:09;;;;;;;0.35;0.10;;;;;;;;;;5034872;28;20049;-76
2022/05/08 11:17:35;;;;;;;0.00;0.00;;;;;;;;;;5031360;28;20044;-75
2022/05/08 11:20:01;;;;;;;0.13;0.13;;;;;;;;;;5037805;28;20765;-75
2022/05/08 11:22:27;;;;;;;0.22;0.22;;;;;;;;;;5028584;28;20072;-74
2022/05/08 11:25:10;;;;;;;1.65;0.65;;;;;;;;;;5038354;28;20034;-77
2022/05/08 11:27:36;;;;;;;0.10;0.10;;;;;;;;;;5036601;28;20079;-77
2022/05/08 11:30:02;;;;;;;0.70;0.43;;;;;;;;;;5027483;28;20587;-77
2022/05/08 11:38:06;;;;;;;0.10;0.10;;;;;;;;;;5032210;28;20051;-76
2022/05/08 11:40:32;;;;;;;0.15;0.15;;;;;;;;;;5033256;28;20044;-76
2022/05/08 11:42:58;;;;;;;0.10;0.10;;;;;;;;;;5040710;28;20582;-76
2022/05/08 11:45:24;;;;;;;0.10;0.10;;;;;;;;;;5042092;28;20016;-76
2022/05/08 11:47:51;;;;;;;0.20;0.20;;;;;;;;;;5044794;28;20029;-76
2022/05/08 11:50:17;;;;;;;0.43;0.43;;;;;;;;;;5040501;28;20036;-76
2022/05/08 11:52:43;;;;;;;0.20;0.20;;;;;;;;;;5035881;28;20028;-75
2022/05/08 11:55:10;;;;;;;0.10;0.10;;;;;;;;;;5036789;28;20025;-76
2022/05/08 11:57:43;;;;;;;0.28;0.28;;;;;;;;;;5042101;28;20025;-77
2022/05/08 12:00:10;;;;;;;1.75;0.50;;;;;;;;;;5036653;28;20043;-76
2022/05/08 12:02:42;;;;;;;0.60;0.60;;;;;;;;;;5037086;28;20123;-76
2022/05/08 12:05:17;;;;;;;0.40;0.40;;;;;;;;;;5042508;28;20124;-77
2022/05/08 12:07:45;;;;;;;0.05;0.05;;;;;;;;;;5035986;28;20017;-77
2022/05/08 12:10:11;;;;;;;0.93;0.30;;;;;;;;;;5040217;28;20029;-76
2022/05/08 12:12:38;;;;;;;0.43;0.35;;;;;;;;;;5040059;28;20033;-76
2022/05/08 12:15:07;;;;;;;0.20;0.20;;;;;;;;;;5043293;28;20053;-77
2022/05/08 12:17:42;;;;;;;0.98;0.52;;;;;;;;;;5041273;28;20023;-77
2022/05/08 12:20:18;;;;;;;0.95;0.47;;;;;;;;;;5035516;28;20022;-76
2022/05/08 12:22:46;;;;;;;2.28;1.20;;;;;;;;;;5040320;28;20392;-76
2022/05/08 12:25:12;;;;;;;0.20;0.20;;;;;;;;;;5043063;28;20025;-76
2022/05/08 12:27:39;;;;;;;2.65;0.98;;;;;;;;;;5042040;28;20032;-75
2022/05/08 12:30:07;;;;;;;0.03;0.03;;;;;;;;;;5045242;28;20091;-76
2022/05/08 12:32:37;;;;;;;4.03;0.25;;;;;;;;;;5045564;28;20033;-76
2022/05/08 12:35:03;;;;;;;0.63;0.63;;;;;;;;;;5041038;28;20044;-76
2022/05/08 12:37:29;;;;;;;0.30;0.10;;;;;;;;;;5035411;28;20029;-76
2022/05/08 12:39:55;;;;;;;1.00;0.20;;;;;;;;;;5040871;28;20116;-76
2022/05/08 12:42:21;;;;;;;0.32;0.25;;;;;;;;;;5040965;28;20029;-76
2022/05/08 12:44:47;;;;;;;0.10;0.10;;;;;;;;;;5033217;28;20048;-76
2022/05/08 12:47:14;;;;;;;0.22;0.20;;;;;;;;;;5039083;28;20244;-75
2022/05/08 12:49:41;;;;;;;0.10;0.10;;;;;;;;;;5037032;28;20036;-75
2022/05/08 12:52:07;;;;;;;5.28;0.40;;;;;;;;;;5044213;28;20132;-76
2022/05/08 12:54:34;;;;;;;1.35;0.70;;;;;;;;;;5038254;28;20025;-76
2022/05/08 12:57:00;;;;;;;0.15;0.15;;;;;;;;;;5040543;28;20025;-75
2022/05/08 12:59:46;;;;;;;0.10;0.10;;;;;;;;;;5039960;28;20029;-76
2022/05/08 13:02:14;;;;;;;0.10;0.10;;;;;;;;;;5033960;28;20434;-76
2022/05/08 13:04:40;;;;;;;2.10;0.40;;;;;;;;;;5044343;28;20044;-76
2022/05/08 13:07:06;;;;;;;0.68;0.65;;;;;;;;;;5041767;28;20033;-76
2022/05/08 13:09:33;;;;;;;0.85;0.75;;;;;;;;;;5040776;28;20029;-76
2022/05/08 13:11:59;;;;;;;0.32;0.32;;;;;;;;;;5032670;28;20048;-75
2022/05/08 13:14:25;;;;;;;0.00;0.00;;;;;;;;;;5040537;28;20029;-76
2022/05/08 13:16:51;;;;;;;0.45;0.45;;;;;;;;;;5042930;28;20120;-76
2022/05/08 13:19:17;;;;;;;0.20;0.20;;;;;;;;;;5038922;28;20024;-76
2022/05/08 13:21:44;;;;;;;0.50;0.45;;;;;;;;;;5040238;28;20396;-76
2022/05/08 13:24:10;;;;;;;0.40;0.40;;;;;;;;;;5038331;28;20031;-76
2022/05/08 13:26:36;;;;;;;1.27;0.30;;;;;;;;;;5048361;28;20475;-76
2022/05/08 13:29:02;;;;;;;0.20;0.20;;;;;;;;;;5046899;28;20036;-76
2022/05/08 13:31:28;;;;;;;0.88;0.80;;;;;;;;;;5038709;28;20120;-76
2022/05/08 13:33:54;;;;;;;0.13;0.13;;;;;;;;;;5041902;28;20107;-76
2022/05/08 13:36:20;;;;;;;1.02;0.73;;;;;;;;;;5042483;28;20555;-76
2022/05/08 13:38:46;;;;;;;0.77;0.70;;;;;;;;;;5041065;28;20597;-76
2022/05/08 13:41:13;;;;;;;0.08;0.08;;;;;;;;;;5033185;28;20469;-76
2022/05/08 13:43:39;;;;;;;0.20;0.20;;;;;;;;;;5032290;28;20029;-76
2022/05/08 13:46:05;;;;;;;0.98;0.40;;;;;;;;;;5040682;28;20044;-76
2022/05/08 13:48:31;;;;;;;0.10;0.10;;;;;;;;;;5042290;28;20488;-78
2022/05/08 13:50:58;;;;;;;0.82;0.82;;;;;;;;;;5036640;28;20033;-79
2022/05/08 13:53:24;;;;;;;0.10;0.10;;;;;;;;;;5046213;28;20024;-75
2022/05/08 13:55:54;;;;;;;1.40;1.02;;;;;;;;;;5040499;28;20025;-75
2022/05/08 13:58:20;;;;;;;0.20;0.20;;;;;;;;;;5043942;28;20040;-74
2022/05/08 14:00:48;;;;;;;0.03;0.03;;;;;;;;;;5045810;28;20017;-75
2022/05/08 14:03:15;;;;;;;0.20;0.20;;;;;;;;;;5039814;28;20484;-76
2022/05/08 14:05:41;;;;;;;0.45;0.38;;;;;;;;;;5041181;28;20486;-77
2022/05/08 14:08:08;;;;;;;0.22;0.22;;;;;;;;;;5041856;28;20069;-76
2022/05/08 14:10:34;;;;;;;0.30;0.30;;;;;;;;;;5040986;28;20028;-76
2022/05/08 14:13:00;;;;;;;1.25;0.98;;;;;;;;;;5038321;28;20029;-75
2022/05/08 14:15:26;;;;;;;0.50;0.50;;;;;;;;;;5036639;28;20024;-80
2022/05/08 14:17:52;;;;;;;1.45;0.57;;;;;;;;;;5041596;28;20380;-76
2022/05/08 14:20:18;;;;;;;0.20;0.20;;;;;;;;;;5040752;28;20083;-77
2022/05/08 14:22:47;;;;;;;0.10;0.10;;;;;;;;;;5038469;28;20032;-76
2022/05/08 14:25:14;;;;;;;1.25;1.15;;;;;;;;;;5039310;28;20029;-76
2022/05/08 14:27:40;;;;;;;0.15;0.08;;;;;;;;;;5038141;28;20167;-77
2022/05/08 14:30:09;;;;;;;0.20;0.20;;;;;;;;;;5039589;28;20438;-77
2022/05/08 14:38:06;;;;;;;0.10;0.10;;;;;;;;;;5040196;28;20047;-79
2022/05/08 14:40:32;;;;;;;0.40;0.40;;;;;;;;;;5034316;28;20055;-79
2022/05/08 14:42:58;;;;;;;0.25;0.25;;;;;;;;;;5041369;28;20110;-78
2022/05/08 14:45:24;;;;;;;0.50;0.50;;;;;;;;;;5035416;28;20036;-79
2022/05/08 14:47:50;;;;;;;2.67;0.22;;;;;;;;;;5033939;28;20052;-79
2022/05/08 14:50:16;;;;;;;0.35;0.35;;;;;;;;;;5031731;28;20048;-79
2022/05/08 14:52:42;;;;;;;0.05;0.05;;;;;;;;;;5033451;28;20048;-80
2022/05/08 14:55:08;;;;;;;0.50;0.35;;;;;;;;;;5036632;28;20021;-78
2022/05/08 14:57:34;;;;;;;0.00;0.00;;;;;;;;;;5037335;28;20438;-78
2022/05/08 15:00:00;;;;;;;0.30;0.30;;;;;;;;;;5033375;28;20116;-77
2022/05/08 15:02:26;;;;;;;0.17;0.17;;;;;;;;;;5033821;28;20406;-77
2022/05/08 15:04:52;;;;;;;0.13;0.10;;;;;;;;;;5039507;28;20045;-76
2022/05/08 15:07:17;;;;;;;0.45;0.43;;;;;;;;;;5040024;28;20024;-76
2022/05/08 15:09:43;;;;;;;0.20;0.20;;;;;;;;;;5036876;28;20021;-77
2022/05/08 15:12:09;;;;;;;3.88;0.40;;;;;;;;;;5033596;28;20024;-76
2022/05/08 15:14:35;;;;;;;0.15;0.15;;;;;;;;;;5039386;28;20029;-75
2022/05/08 15:17:01;;;;;;;0.52;0.30;;;;;;;;;;5043496;28;20091;-75
2022/05/08 15:19:27;;;;;;;0.25;0.17;;;;;;;;;;5041361;28;20025;-76